createdAt,value
2022-10-23T00:01:42.142Z,3.00
2022-10-23T00:04:20.202Z,2.40
2022-10-23T00:06:48.952Z,2.00
2022-10-23T00:09:21.695Z,2.20
2022-10-23T00:11:51.097Z,2.50
2022-10-23T00:14:24.606Z,2.30
2022-10-23T00:16:52.064Z,2.40
2022-10-23T00:19:19.479Z,2.60
2022-10-23T00:21:46.971Z,2.20
2022-10-23T00:24:14.465Z,2.10
2022-10-23T00:26:42.703Z,2.10
2022-10-23T00:29:11.129Z,2.90
2022-10-23T00:31:39.076Z,2.00
2022-10-23T00:34:08.574Z,2.30
2022-10-23T00:36:36.945Z,2.70
2022-10-23T00:39:05.703Z,2.20
2022-10-23T00:41:33.299Z,2.00
2022-10-23T00:44:28.809Z,2.10
2022-10-23T00:46:57.659Z,2.00
2022-10-23T00:49:26.065Z,2.30
2022-10-23T00:51:57.734Z,1.90
2022-10-23T00:54:29.053Z,2.10
2022-10-23T00:57:00.326Z,1.60
2022-10-23T01:01:56.622Z,1.90
2022-10-23T01:04:25.422Z,1.90
2022-10-23T01:07:36.629Z,1.90
2022-10-23T01:10:35.328Z,1.90
2022-10-23T01:13:43.244Z,1.50
2022-10-23T01:16:18.528Z,2.10
2022-10-23T01:18:58.246Z,1.90
2022-10-23T01:21:39.156Z,1.70
2022-10-23T01:24:21.770Z,2.00
2022-10-23T01:27:15.307Z,2.10
2022-10-23T01:30:09.358Z,1.90
2022-10-23T01:32:53.018Z,2.20
2022-10-23T01:35:29.748Z,1.90
2022-10-23T01:38:11.877Z,1.70
2022-10-23T01:40:57.682Z,1.70
2022-10-23T01:43:30.664Z,1.80
2022-10-23T01:46:03.614Z,1.60
2022-10-23T01:48:34.410Z,1.50
2022-10-23T01:51:06.746Z,1.80
2022-10-23T01:53:41.282Z,1.70
2022-10-23T01:56:20.110Z,1.90
2022-10-23T01:58:51.288Z,1.70
2022-10-23T02:03:48.646Z,1.60
2022-10-23T02:06:16.165Z,1.90
2022-10-23T02:08:43.590Z,1.60
2022-10-23T02:11:15.247Z,1.90
2022-10-23T02:14:04.444Z,1.50
2022-10-23T02:16:45.483Z,1.60
2022-10-23T02:19:26.202Z,1.90
2022-10-23T02:22:06.954Z,2.30
2022-10-23T02:24:51.072Z,2.90
2022-10-23T02:27:32.550Z,1.90
2022-10-23T02:30:12.687Z,1.70
2022-10-23T02:32:48.550Z,2.20
2022-10-23T02:35:18.087Z,1.90
2022-10-23T02:37:56.855Z,3.20
2022-10-23T02:40:38.969Z,2.20
2022-10-23T02:43:17.183Z,2.20
2022-10-23T02:45:56.829Z,2.50
2022-10-23T02:48:35.187Z,2.30
2022-10-23T02:51:14.007Z,1.90
2022-10-23T02:53:51.892Z,2.30
2022-10-23T02:56:32.646Z,2.10
2022-10-23T02:59:24.760Z,2.50
2022-10-23T03:02:00.362Z,2.20
2022-10-23T03:04:28.629Z,2.60
2022-10-23T03:06:56.613Z,2.20
2022-10-23T03:09:26.710Z,2.50
2022-10-23T03:11:54.134Z,2.20
2022-10-23T03:14:21.524Z,2.00
2022-10-23T03:16:48.898Z,2.00
2022-10-23T03:19:16.207Z,2.20
2022-10-23T03:21:43.531Z,2.20
2022-10-23T03:24:10.954Z,2.00
2022-10-23T03:26:38.291Z,2.40
2022-10-23T03:29:05.757Z,2.20
2022-10-23T03:31:33.149Z,2.30
2022-10-23T03:34:02.226Z,2.50
2022-10-23T03:36:31.412Z,2.20
2022-10-23T03:39:00.269Z,2.30
2022-10-23T03:41:27.644Z,2.10
2022-10-23T03:43:55.075Z,2.50
2022-10-23T03:46:22.655Z,2.40
2022-10-23T03:48:49.962Z,2.20
2022-10-23T03:51:17.287Z,2.50
2022-10-23T03:53:44.659Z,2.20
2022-10-23T03:56:12.013Z,2.20
2022-10-23T03:58:39.435Z,2.40
2022-10-23T04:01:06.874Z,2.30
2022-10-23T04:03:34.227Z,2.30
2022-10-23T04:06:02.132Z,2.60
2022-10-23T04:08:29.434Z,2.50
2022-10-23T04:10:57.013Z,2.70
2022-10-23T04:13:24.536Z,2.50
2022-10-23T04:15:53.627Z,2.60
2022-10-23T04:18:20.992Z,2.40
2022-10-23T04:20:49.489Z,2.50
2022-10-23T04:23:18.069Z,2.30
2022-10-23T04:28:13.327Z,2.90
2022-10-23T04:30:41.680Z,2.60
2022-10-23T04:33:09.088Z,2.70
2022-10-23T04:35:36.391Z,2.50
2022-10-23T04:38:03.872Z,2.70
2022-10-23T04:40:31.286Z,3.00
2022-10-23T04:42:58.646Z,2.90
2022-10-23T04:45:26.073Z,3.10
2022-10-23T04:47:53.539Z,2.50
2022-10-23T04:50:21.127Z,2.80
2022-10-23T04:52:48.592Z,2.80
2022-10-23T04:55:16.113Z,3.00
2022-10-23T04:57:43.430Z,2.70
2022-10-23T05:00:14.397Z,2.60
2022-10-23T05:02:42.361Z,2.80
2022-10-23T05:05:10.405Z,2.50
2022-10-23T05:07:38.728Z,2.50
2022-10-23T05:10:06.946Z,3.10
2022-10-23T05:12:34.359Z,3.00
2022-10-23T05:15:02.388Z,3.00
2022-10-23T05:17:35.101Z,2.90
2022-10-23T05:20:08.978Z,2.70
2022-10-23T05:22:38.497Z,2.90
2022-10-23T05:25:06.625Z,3.20
2022-10-23T05:27:34.149Z,3.10
2022-10-23T05:30:02.550Z,2.60
2022-10-23T05:32:32.575Z,3.10
2022-10-23T05:35:03.848Z,2.80
2022-10-23T05:39:58.600Z,2.80
2022-10-23T05:42:25.961Z,2.80
2022-10-23T05:44:53.601Z,2.80
2022-10-23T05:47:20.898Z,3.10
2022-10-23T05:49:48.306Z,3.40
2022-10-23T05:52:15.786Z,3.00
2022-10-23T05:54:43.131Z,3.10
2022-10-23T05:57:10.619Z,2.80
2022-10-23T05:59:38.068Z,3.40
2022-10-23T06:02:05.510Z,3.10
2022-10-23T06:04:35.301Z,2.70
2022-10-23T06:07:04.273Z,2.80
2022-10-23T06:09:31.616Z,3.10
2022-10-23T06:11:58.983Z,3.10
2022-10-23T06:14:26.455Z,3.00
2022-10-23T06:16:53.929Z,2.80
2022-10-23T06:19:21.244Z,3.00
2022-10-23T06:21:48.600Z,3.50
2022-10-23T06:24:16.031Z,3.70
2022-10-23T06:26:43.380Z,3.30
2022-10-23T06:29:10.755Z,3.30
2022-10-23T06:31:38.090Z,3.10
2022-10-23T06:34:06.186Z,4.20
2022-10-23T06:36:33.473Z,2.90
2022-10-23T06:39:00.853Z,3.20
2022-10-23T06:41:28.315Z,3.60
2022-10-23T06:43:56.086Z,3.20
2022-10-23T06:46:24.106Z,3.60
2022-10-23T06:48:51.520Z,3.10
2022-10-23T06:51:18.889Z,3.00
2022-10-23T06:53:46.346Z,3.50
2022-10-23T06:56:14.131Z,3.90
2022-10-23T06:58:41.865Z,3.70
2022-10-23T07:01:13.259Z,3.10
2022-10-23T07:03:40.818Z,3.40
2022-10-23T07:06:11.134Z,3.40
2022-10-23T07:08:39.006Z,3.40
2022-10-23T07:11:09.394Z,2.90
2022-10-23T07:13:38.686Z,3.50
2022-10-23T07:16:18.618Z,3.40
2022-10-23T07:18:47.092Z,3.40
2022-10-23T07:21:17.858Z,4.10
2022-10-23T07:23:45.654Z,3.30
2022-10-23T07:26:16.902Z,4.10
2022-10-23T07:31:14.618Z,3.70
2022-10-23T07:33:41.992Z,3.40
2022-10-23T07:36:10.448Z,3.80
2022-10-23T07:38:38.150Z,3.80
2022-10-23T07:41:08.877Z,4.00
2022-10-23T07:43:39.524Z,3.40
2022-10-23T07:46:09.699Z,3.90
2022-10-23T07:48:38.790Z,3.90
2022-10-23T07:51:11.473Z,3.40
2022-10-23T07:53:39.499Z,3.60
2022-10-23T07:56:30.022Z,3.70
2022-10-23T07:58:57.561Z,3.50
2022-10-23T08:01:35.292Z,3.30
2022-10-23T08:04:03.460Z,3.30
2022-10-23T08:06:31.302Z,3.50
2022-10-23T08:09:00.900Z,3.90
2022-10-23T08:11:35.753Z,3.40
2022-10-23T08:14:06.021Z,3.60
2022-10-23T08:16:36.189Z,4.10
2022-10-23T08:19:06.147Z,3.60
2022-10-23T08:21:33.573Z,3.50
2022-10-23T08:24:01.477Z,3.50
2022-10-23T08:26:29.536Z,3.20
2022-10-23T08:28:59.557Z,3.60
2022-10-23T08:31:28.040Z,3.60
2022-10-23T08:33:55.409Z,4.00
2022-10-23T08:36:28.508Z,3.40
2022-10-23T08:38:57.707Z,2.60
2022-10-23T08:41:28.364Z,3.40
2022-10-23T08:44:28.983Z,3.20
2022-10-23T08:47:06.784Z,3.80
2022-10-23T08:49:54.630Z,3.90
2022-10-23T08:52:58.399Z,3.40
2022-10-23T08:55:44.953Z,3.60
2022-10-23T08:58:32.291Z,3.80
2022-10-23T09:01:31.764Z,3.40
2022-10-23T09:03:59.350Z,3.90
2022-10-23T09:06:50.960Z,3.00
2022-10-23T09:09:50.231Z,3.20
2022-10-23T09:12:24.087Z,3.20
2022-10-23T09:15:04.112Z,3.30
2022-10-23T09:17:36.273Z,2.90
2022-10-23T09:20:19.156Z,3.20
2022-10-23T09:22:49.525Z,2.60
2022-10-23T09:25:25.692Z,3.00
2022-10-23T09:28:04.278Z,2.80
2022-10-23T09:30:39.857Z,2.70
2022-10-23T09:33:19.392Z,3.40
2022-10-23T09:36:18.176Z,2.80
2022-10-23T09:38:45.443Z,3.00
2022-10-23T09:41:29.747Z,2.50
2022-10-23T09:44:15.855Z,2.50
2022-10-23T09:46:47.622Z,3.00
2022-10-23T09:49:23.193Z,2.70
2022-10-23T09:52:00.321Z,2.70
2022-10-23T09:54:31.625Z,2.80
2022-10-23T09:57:24.359Z,2.70
2022-10-23T10:00:05.045Z,2.40
2022-10-23T10:02:36.093Z,2.90
2022-10-23T10:05:31.560Z,2.50
2022-10-23T10:08:13.997Z,2.60
2022-10-23T10:10:49.764Z,2.40
2022-10-23T10:13:38.382Z,2.50
2022-10-23T10:16:19.701Z,2.30
2022-10-23T10:19:05.741Z,2.30
2022-10-23T10:22:15.070Z,2.50
2022-10-23T10:24:54.047Z,2.50
2022-10-23T10:27:43.241Z,2.40
2022-10-23T10:30:18.290Z,2.60
2022-10-23T10:32:58.890Z,2.60
2022-10-23T10:35:40.819Z,2.80
2022-10-23T10:38:23.264Z,3.50
2022-10-23T10:41:20.892Z,3.50
2022-10-23T10:44:22.360Z,2.20
2022-10-23T10:47:08.734Z,2.40
2022-10-23T10:49:46.938Z,3.00
2022-10-23T10:52:23.468Z,2.90
2022-10-23T10:55:11.242Z,2.70
2022-10-23T10:57:44.730Z,2.60
2022-10-23T11:00:20.608Z,2.70
2022-10-23T11:03:03.902Z,2.50
2022-10-23T11:05:35.252Z,2.60
2022-10-23T11:08:44.549Z,2.60
2022-10-23T11:11:40.565Z,2.30
2022-10-23T11:14:20.870Z,2.30
2022-10-23T11:17:11.998Z,2.40
2022-10-23T11:19:49.869Z,2.40
2022-10-23T11:22:50.709Z,1.90
2022-10-23T11:25:56.548Z,3.00
2022-10-23T11:28:30.845Z,2.90
2022-10-23T11:31:29.083Z,2.60
2022-10-23T11:34:17.487Z,2.60
2022-10-23T11:36:53.910Z,2.40
2022-10-23T11:39:30.715Z,2.50
2022-10-23T11:42:04.112Z,2.80
2022-10-23T11:44:50.762Z,2.50
2022-10-23T11:47:40.790Z,2.90
2022-10-23T11:50:08.099Z,2.30
2022-10-23T11:53:17.116Z,2.20
2022-10-23T11:56:19.498Z,2.00
2022-10-23T11:58:50.335Z,2.20
2022-10-23T12:04:13.756Z,2.60
2022-10-23T12:06:53.084Z,2.00
2022-10-23T12:09:28.936Z,2.20
2022-10-23T12:12:08.270Z,1.90
2022-10-23T12:14:50.474Z,2.10
2022-10-23T12:17:23.836Z,2.20
2022-10-23T12:20:01.908Z,2.10
2022-10-23T12:22:45.666Z,2.30
2022-10-23T12:25:33.205Z,1.90
2022-10-23T12:28:23.061Z,1.70
2022-10-23T12:31:34.990Z,2.00
2022-10-23T12:34:20.413Z,2.20
2022-10-23T12:37:36.515Z,3.50
2022-10-23T12:40:09.280Z,2.30
2022-10-23T12:42:40.596Z,2.30
2022-10-23T12:45:29.295Z,1.70
2022-10-23T12:47:56.782Z,2.70
2022-10-23T12:50:31.794Z,1.90
2022-10-23T12:53:06.748Z,1.90
2022-10-23T12:56:06.957Z,2.20
2022-10-23T12:58:35.697Z,2.00
2022-10-23T13:01:06.564Z,2.40
2022-10-23T13:03:35.022Z,2.40
2022-10-23T13:06:03.652Z,2.20
2022-10-23T13:08:41.236Z,2.30
2022-10-23T13:11:14.951Z,1.80
2022-10-23T13:13:42.848Z,2.00
2022-10-23T13:16:23.944Z,2.70
2022-10-23T13:18:51.484Z,2.20
2022-10-23T13:21:26.685Z,2.10
2022-10-23T13:23:54.768Z,2.00
2022-10-23T13:26:45.532Z,2.20
2022-10-23T13:29:22.525Z,2.10
2022-10-23T13:31:51.053Z,2.00
2022-10-23T13:34:30.662Z,2.00
2022-10-23T13:37:20.199Z,2.20
2022-10-23T13:39:47.595Z,2.30
2022-10-23T13:42:15.577Z,2.70
2022-10-23T13:44:46.421Z,1.80
2022-10-23T13:47:14.684Z,2.20
2022-10-23T13:49:42.045Z,2.10
2022-10-23T13:52:14.508Z,1.70
2022-10-23T13:54:43.589Z,2.10
2022-10-23T13:57:15.521Z,1.70
2022-10-23T13:59:43.151Z,1.90
2022-10-23T14:02:23.474Z,2.50
2022-10-23T14:04:57.144Z,2.10
2022-10-23T14:07:24.587Z,2.10
2022-10-23T14:09:51.899Z,2.20
2022-10-23T14:12:19.274Z,3.00
2022-10-23T14:14:51.930Z,2.70
2022-10-23T14:17:20.962Z,2.40
2022-10-23T14:19:48.382Z,2.50
2022-10-23T14:22:15.948Z,2.00
2022-10-23T14:24:43.234Z,2.40
2022-10-23T14:27:27.711Z,2.10
2022-10-23T14:29:56.124Z,2.20
2022-10-23T14:32:23.519Z,2.30
2022-10-23T14:34:54.190Z,2.50
2022-10-23T14:37:22.756Z,2.20
2022-10-23T14:39:50.501Z,2.30
2022-10-23T14:42:18.170Z,2.50
2022-10-23T14:44:49.667Z,2.30
2022-10-23T14:47:19.283Z,2.30
2022-10-23T14:49:51.162Z,2.40
2022-10-23T14:52:19.021Z,2.10
2022-10-23T14:54:46.433Z,2.60
2022-10-23T14:57:16.600Z,1.90
2022-10-23T14:59:44.109Z,3.00
2022-10-23T15:02:11.833Z,2.20
2022-10-23T15:04:39.842Z,2.20
2022-10-23T15:07:07.392Z,2.30
2022-10-23T15:09:36.723Z,2.50
2022-10-23T15:12:05.117Z,2.30
2022-10-23T15:14:32.537Z,2.40
2022-10-23T15:16:59.893Z,2.60
2022-10-23T15:19:27.509Z,2.20
2022-10-23T15:21:54.981Z,1.90
2022-10-23T15:24:22.457Z,2.10
2022-10-23T15:26:51.591Z,2.40
2022-10-23T15:29:21.333Z,2.00
2022-10-23T15:31:55.431Z,2.30
2022-10-23T15:34:27.030Z,2.50
2022-10-23T15:36:56.740Z,2.70
2022-10-23T15:39:28.346Z,2.90
2022-10-23T15:41:57.184Z,2.70
2022-10-23T15:44:27.444Z,2.10
2022-10-23T15:46:58.681Z,2.40
2022-10-23T15:49:31.342Z,2.40
2022-10-23T15:51:59.069Z,2.40
2022-10-23T15:54:29.307Z,2.30
2022-10-23T15:56:59.598Z,2.40
2022-10-23T15:59:28.378Z,2.60
2022-10-23T16:01:57.307Z,2.80
2022-10-23T16:04:25.021Z,2.20
2022-10-23T16:06:52.327Z,2.20
2022-10-23T16:09:19.783Z,2.20
2022-10-23T16:11:47.352Z,2.10
2022-10-23T16:14:17.155Z,2.20
2022-10-23T16:16:44.846Z,2.30
2022-10-23T16:19:12.950Z,2.40
2022-10-23T16:21:42.159Z,2.70
2022-10-23T16:24:10.726Z,2.40
2022-10-23T16:26:39.833Z,2.40
2022-10-23T16:29:09.010Z,1.80
2022-10-23T16:31:36.706Z,1.60
2022-10-23T16:34:05.396Z,1.10
2022-10-23T16:36:33.245Z,1.20
2022-10-23T16:39:06.032Z,1.10
2022-10-23T16:41:33.357Z,1.40
2022-10-23T16:44:01.145Z,1.70
2022-10-23T16:46:31.750Z,1.10
2022-10-23T16:48:59.128Z,1.10
2022-10-23T16:51:27.686Z,1.30
2022-10-23T16:53:55.512Z,1.10
2022-10-23T16:56:25.524Z,1.00
2022-10-23T16:58:52.915Z,0.80
2022-10-23T17:01:23.976Z,1.20
2022-10-23T17:06:27.273Z,1.00
2022-10-23T17:08:55.875Z,1.00
2022-10-23T17:11:32.367Z,1.10
2022-10-23T17:14:04.848Z,1.20
2022-10-23T17:16:37.747Z,1.20
2022-10-23T17:19:20.601Z,1.10
2022-10-23T17:21:55.872Z,1.20
2022-10-23T17:24:23.570Z,1.10
2022-10-23T17:26:51.635Z,1.00
2022-10-23T17:29:19.058Z,1.00
2022-10-23T17:31:49.896Z,1.50
2022-10-23T17:34:21.728Z,1.40
2022-10-23T17:36:53.046Z,1.20
2022-10-23T17:39:25.187Z,1.10
2022-10-23T17:41:53.472Z,1.00
2022-10-23T17:44:21.017Z,1.20
2022-10-23T17:46:55.456Z,1.10
2022-10-23T17:49:24.549Z,1.20
2022-10-23T17:51:54.662Z,1.10
2022-10-23T17:54:23.233Z,1.50
2022-10-23T17:56:50.630Z,1.60
2022-10-23T17:59:20.966Z,2.10
2022-10-23T18:01:49.482Z,1.50
2022-10-23T18:04:19.776Z,1.70
2022-10-23T18:06:53.064Z,1.10
2022-10-23T18:09:22.412Z,1.10
2022-10-23T18:11:50.333Z,1.80
2022-10-23T18:14:20.779Z,1.50
2022-10-23T18:16:49.123Z,1.60
2022-10-23T18:19:18.463Z,1.70
2022-10-23T18:21:47.569Z,2.00
2022-10-23T18:24:15.784Z,1.60
2022-10-23T18:26:43.519Z,1.40
2022-10-23T18:29:12.866Z,1.40
2022-10-23T18:31:41.957Z,1.60
2022-10-23T18:34:18.360Z,1.20
2022-10-23T18:36:46.660Z,1.70
2022-10-23T18:39:17.455Z,1.80
2022-10-23T18:41:45.936Z,1.40
2022-10-23T18:44:19.159Z,1.70
2022-10-23T18:46:49.169Z,2.20
2022-10-23T18:49:18.884Z,2.50
2022-10-23T18:51:46.572Z,2.30
2022-10-23T18:54:16.362Z,1.80
2022-10-23T18:56:44.087Z,1.80
2022-10-23T18:59:17.660Z,1.70
2022-10-23T19:01:45.294Z,1.90
2022-10-23T19:04:15.787Z,1.60
2022-10-23T19:06:44.414Z,1.60
2022-10-23T19:09:14.157Z,1.40
2022-10-23T19:11:43.125Z,1.20
2022-10-23T19:14:11.177Z,1.40
2022-10-23T19:16:45.362Z,1.40
2022-10-23T19:19:21.894Z,1.20
2022-10-23T19:21:50.505Z,1.00
2022-10-23T19:24:28.769Z,1.20
2022-10-23T19:26:57.534Z,1.20
2022-10-23T19:29:26.642Z,1.30
2022-10-23T19:31:54.690Z,1.40
2022-10-23T19:34:24.751Z,1.40
2022-10-23T19:36:53.722Z,1.40
2022-10-23T19:39:21.951Z,1.40
2022-10-23T19:41:51.649Z,1.30
2022-10-23T19:44:19.596Z,1.40
2022-10-23T19:46:48.127Z,1.20
2022-10-23T19:49:15.631Z,1.30
2022-10-23T19:51:50.985Z,1.40
2022-10-23T19:54:20.938Z,1.40
2022-10-23T19:56:49.412Z,1.20
2022-10-23T19:59:17.921Z,1.30
2022-10-23T20:01:48.138Z,1.10
2022-10-23T20:04:18.939Z,1.40
2022-10-23T20:06:47.293Z,1.40
2022-10-23T20:09:14.666Z,1.30
2022-10-23T20:11:42.204Z,1.20
2022-10-23T20:14:10.684Z,1.30
2022-10-23T20:16:39.505Z,1.20
2022-10-23T20:19:12.397Z,1.30
2022-10-23T20:21:42.295Z,1.10
2022-10-23T20:24:12.924Z,1.40
2022-10-23T20:26:42.915Z,1.60
2022-10-23T20:29:10.707Z,1.60
2022-10-23T20:31:39.484Z,1.50
2022-10-23T20:34:07.886Z,1.40
2022-10-23T20:36:41.143Z,1.50
2022-10-23T20:39:17.875Z,1.50
2022-10-23T20:41:45.366Z,1.70
2022-10-23T20:46:45.080Z,1.80
2022-10-23T20:49:14.041Z,2.00
2022-10-23T20:51:42.340Z,2.30
2022-10-23T20:54:09.738Z,1.90
2022-10-23T20:56:39.505Z,2.40
2022-10-23T20:59:16.533Z,2.40
2022-10-23T21:01:51.162Z,3.30
2022-10-23T21:04:24.081Z,2.60
2022-10-23T21:07:10.697Z,2.30
2022-10-23T21:09:40.061Z,2.40
2022-10-23T21:12:09.078Z,2.60
2022-10-23T21:14:36.886Z,2.50
2022-10-23T21:17:04.280Z,2.50
2022-10-23T21:19:31.691Z,2.60
2022-10-23T21:21:58.998Z,2.70
2022-10-23T21:24:26.460Z,2.70
2022-10-23T21:26:53.786Z,2.40
2022-10-23T21:29:21.377Z,2.50
2022-10-23T21:31:57.745Z,3.00
2022-10-23T21:34:26.679Z,2.50
2022-10-23T21:39:44.861Z,2.10
2022-10-23T21:42:14.014Z,2.40
2022-10-23T21:44:41.453Z,2.70
2022-10-23T21:47:09.044Z,2.10
2022-10-23T21:49:36.534Z,1.60
2022-10-23T21:52:04.616Z,1.90
2022-10-23T21:54:32.247Z,1.80
2022-10-23T21:56:59.628Z,1.80
2022-10-23T21:59:30.154Z,2.50
2022-10-23T22:01:59.503Z,2.00
2022-10-23T22:04:27.012Z,2.00
2022-10-23T22:06:54.449Z,2.10
2022-10-23T22:09:22.774Z,2.10
2022-10-23T22:11:53.010Z,2.30
2022-10-23T22:14:22.186Z,2.30
2022-10-23T22:16:49.917Z,2.10
2022-10-23T22:19:19.546Z,2.00
2022-10-23T22:21:48.778Z,1.70
2022-10-23T22:24:17.697Z,2.00
2022-10-23T22:26:49.878Z,1.70
2022-10-23T22:29:22.009Z,1.80
2022-10-23T22:31:50.313Z,1.60
2022-10-23T22:34:48.256Z,1.50
2022-10-23T22:37:16.229Z,1.80
2022-10-23T22:40:36.175Z,1.60
2022-10-23T22:43:04.156Z,1.70
2022-10-23T22:45:31.513Z,2.10
2022-10-23T22:47:58.835Z,1.90
2022-10-23T22:50:26.117Z,2.60
2022-10-23T22:52:53.470Z,1.80
2022-10-23T22:55:20.807Z,2.40
2022-10-23T22:57:48.109Z,2.10
2022-10-23T23:00:16.592Z,1.80
2022-10-23T23:02:44.110Z,1.80
2022-10-23T23:05:12.484Z,1.50
2022-10-23T23:07:39.813Z,1.60
2022-10-23T23:10:07.692Z,2.20
2022-10-23T23:12:37.060Z,1.90
2022-10-23T23:15:05.324Z,1.80
2022-10-23T23:17:32.787Z,1.80
2022-10-23T23:20:00.250Z,1.80
2022-10-23T23:22:27.887Z,1.50
2022-10-23T23:24:55.478Z,1.80
2022-10-23T23:27:22.813Z,1.60
2022-10-23T23:29:50.297Z,1.90
2022-10-23T23:32:17.708Z,1.50
2022-10-23T23:34:45.102Z,1.50
2022-10-23T23:37:12.414Z,2.00
2022-10-23T23:39:39.808Z,1.50
2022-10-23T23:42:07.329Z,1.70
2022-10-23T23:44:41.913Z,1.30
2022-10-23T23:47:17.765Z,1.30
2022-10-23T23:49:45.387Z,1.80
2022-10-23T23:52:12.717Z,1.50
2022-10-23T23:54:40.447Z,1.40
2022-10-23T23:57:07.775Z,1.40
2022-10-23T23:59:37.856Z,1.60
